Time;durP1;ratioP1;P1;durP2;ratioP2;P2;SDS_P1;SDS_P2;PMS_P1;PMS_P2;Temp;Humidity;BMP_temperature;BMP_pressure;BME280_temperature;BME280_humidity;BME280_pressure;Samples;Min_cycle;Max_cycle;Signal;HPM_P1;HPM_P2
2022/01/19 00:01:02;;;;;;;384.42;28.42;;;;;;;;;;4949469;28;107757;-68
2022/01/19 00:03:29;;;;;;;203.75;20.05;;;;;;;;;;4949595;28;108335;-69
2022/01/19 00:05:56;;;;;;;214.98;18.83;;;;;;;;;;4949351;28;106160;-68
2022/01/19 00:08:23;;;;;;;141.57;15.70;;;;;;;;;;4949334;28;108047;-69
2022/01/19 00:10:50;;;;;;;236.82;19.65;;;;;;;;;;4949501;28;106157;-69
2022/01/19 00:13:16;;;;;;;222.43;21.10;;;;;;;;;;4947863;28;106792;-71
2022/01/19 00:15:43;;;;;;;284.95;22.90;;;;;;;;;;4949907;28;108353;-71
2022/01/19 00:18:12;;;;;;;428.23;32.70;;;;;;;;;;4949525;28;106388;-69
2022/01/19 00:20:38;;;;;;;368.83;26.70;;;;;;;;;;4950311;28;106900;-69
2022/01/19 00:23:05;;;;;;;409.55;27.17;;;;;;;;;;4949025;28;108400;-69
2022/01/19 00:25:32;;;;;;;597.63;37.03;;;;;;;;;;4949202;28;107066;-69
2022/01/19 00:27:59;;;;;;;603.05;32.63;;;;;;;;;;4953795;28;107979;-69
2022/01/19 00:30:26;;;;;;;490.25;34.15;;;;;;;;;;4948646;28;106571;-69
2022/01/19 00:32:53;;;;;;;447.92;30.02;;;;;;;;;;4947606;28;108804;-68
2022/01/19 00:35:20;;;;;;;351.92;23.98;;;;;;;;;;4936807;28;108085;-69
2022/01/19 00:37:46;;;;;;;351.95;26.58;;;;;;;;;;4949135;28;105627;-68
2022/01/19 00:40:14;;;;;;;300.52;25.83;;;;;;;;;;4948727;28;106529;-67
2022/01/19 00:42:41;;;;;;;329.45;23.42;;;;;;;;;;4948270;28;107787;-68
2022/01/19 00:45:08;;;;;;;293.55;22.05;;;;;;;;;;4929754;28;107116;-68
2022/01/19 00:47:35;;;;;;;221.80;20.85;;;;;;;;;;4946527;28;107267;-67
2022/01/19 00:50:02;;;;;;;202.80;19.25;;;;;;;;;;4949366;28;106247;-67
2022/01/19 00:52:30;;;;;;;177.60;16.43;;;;;;;;;;4948377;28;107522;-67
2022/01/19 00:54:56;;;;;;;255.32;21.70;;;;;;;;;;4947672;28;107724;-67
2022/01/19 00:57:23;;;;;;;132.52;15.35;;;;;;;;;;4945513;28;106894;-69
2022/01/19 00:59:51;;;;;;;217.02;17.90;;;;;;;;;;4930927;28;109240;-67
2022/01/19 01:02:18;;;;;;;204.13;17.85;;;;;;;;;;4944910;28;109429;-68
2022/01/19 01:04:44;;;;;;;161.90;18.05;;;;;;;;;;4948873;28;105998;-70
2022/01/19 01:07:11;;;;;;;180.10;16.95;;;;;;;;;;4947791;28;108910;-69
2022/01/19 01:09:37;;;;;;;200.52;18.70;;;;;;;;;;4951103;28;106951;-68
2022/01/19 01:12:20;;;;;;;177.38;16.48;;;;;;;;;;4927504;28;109108;-68
2022/01/19 01:20:19;;;;;;;76.07;13.50;;;;;;;;;;4946977;28;108657;-68
2022/01/19 01:22:47;;;;;;;77.70;12.95;;;;;;;;;;4928610;28;107451;-68
2022/01/19 01:25:13;;;;;;;55.67;11.57;;;;;;;;;;4948209;28;106565;-69
2022/01/19 01:27:40;;;;;;;102.00;13.63;;;;;;;;;;4943503;28;109576;-68
2022/01/19 01:30:07;;;;;;;98.18;14.13;;;;;;;;;;4930700;28;108838;-68
2022/01/19 01:32:34;;;;;;;40.78;10.48;;;;;;;;;;4952064;28;105930;-67
2022/01/19 01:35:00;;;;;;;25.95;12.00;;;;;;;;;;4950028;28;106531;-68
2022/01/19 01:37:27;;;;;;;28.13;11.50;;;;;;;;;;4932802;28;107328;-68
2022/01/19 01:39:54;;;;;;;22.67;11.48;;;;;;;;;;4951056;28;106706;-68
2022/01/19 01:42:21;;;;;;;23.83;10.95;;;;;;;;;;4948407;28;106360;-68
2022/01/19 01:44:51;;;;;;;19.75;9.35;;;;;;;;;;4949043;28;105521;-68
2022/01/19 01:47:20;;;;;;;19.23;9.65;;;;;;;;;;4924342;28;107824;-68
2022/01/19 01:55:09;;;;;;;19.23;10.07;;;;;;;;;;4951198;28;108434;-68
2022/01/19 01:57:36;;;;;;;24.52;10.35;;;;;;;;;;4931672;28;107171;-67
2022/01/19 02:00:04;;;;;;;19.40;9.35;;;;;;;;;;4913910;28;108577;-68
2022/01/19 02:02:42;;;;;;;19.20;9.15;;;;;;;;;;4948433;28;106125;-67
2022/01/19 02:05:11;;;;;;;21.42;10.15;;;;;;;;;;4950099;22;107531;-68
2022/01/19 02:07:59;;;;;;;29.50;9.45;;;;;;;;;;4952368;28;108526;-68
2022/01/19 02:10:37;;;;;;;17.52;8.30;;;;;;;;;;4977218;28;109166;-68
2022/01/19 02:16:15;;;;;;;20.80;9.77;;;;;;;;;;4966712;28;108701;-68
2022/01/19 02:21:39;;;;;;;18.50;8.85;;;;;;;;;;4934000;28;107859;-68
2022/01/19 02:24:09;;;;;;;20.53;9.43;;;;;;;;;;4959999;28;108943;-69
2022/01/19 02:26:57;;;;;;;17.77;8.68;;;;;;;;;;4969357;28;105635;-69
2022/01/19 02:40:24;;;;;;;20.20;8.80;;;;;;;;;;4964886;28;106803;-68
2022/01/19 02:43:21;;;;;;;22.70;10.55;;;;;;;;;;4957013;28;106210;-68
2022/01/19 02:51:10;;;;;;;20.13;9.98;;;;;;;;;;4967760;28;106340;-68
2022/01/19 02:53:37;;;;;;;20.10;9.15;;;;;;;;;;4954401;28;109625;-69
2022/01/19 02:56:11;;;;;;;18.92;8.93;;;;;;;;;;4954741;28;106944;-68
2022/01/19 02:58:50;;;;;;;21.27;9.80;;;;;;;;;;4986948;28;107652;-68
2022/01/19 03:09:23;;;;;;;21.98;10.75;;;;;;;;;;4958456;28;106072;-68
2022/01/19 03:11:50;;;;;;;23.45;9.93;;;;;;;;;;4954234;28;108262;-68
2022/01/19 03:14:17;;;;;;;20.63;9.63;;;;;;;;;;4950732;28;109262;-69
2022/01/19 03:16:44;;;;;;;21.92;10.55;;;;;;;;;;4973710;28;106190;-69
2022/01/19 03:19:12;;;;;;;24.20;10.40;;;;;;;;;;4976079;28;107093;-68
2022/01/19 03:21:39;;;;;;;21.77;9.70;;;;;;;;;;4972061;28;109114;-68
2022/01/19 03:24:06;;;;;;;28.70;10.95;;;;;;;;;;4981232;28;105905;-68
2022/01/19 03:26:33;;;;;;;23.48;11.00;;;;;;;;;;4947296;28;109131;-68
2022/01/19 03:29:28;;;;;;;28.67;11.10;;;;;;;;;;4945844;28;106030;-69
2022/01/19 03:31:55;;;;;;;33.35;11.57;;;;;;;;;;4984982;28;108311;-68
2022/01/19 03:34:21;;;;;;;32.45;11.52;;;;;;;;;;4949326;28;109315;-68
2022/01/19 03:36:56;;;;;;;31.40;12.35;;;;;;;;;;4957305;28;106393;-68
2022/01/19 03:39:23;;;;;;;28.73;11.15;;;;;;;;;;4952622;28;109662;-70
2022/01/19 03:41:50;;;;;;;35.42;13.38;;;;;;;;;;4945530;28;109126;-68
2022/01/19 03:44:17;;;;;;;32.95;12.40;;;;;;;;;;4962239;28;106288;-68
2022/01/19 03:46:55;;;;;;;34.25;11.93;;;;;;;;;;4954143;28;108169;-68
2022/01/19 03:49:24;;;;;;;26.98;11.05;;;;;;;;;;4975417;28;109493;-68
2022/01/19 03:51:58;;;;;;;28.13;11.48;;;;;;;;;;4970049;28;107540;-68
2022/01/19 03:54:27;;;;;;;27.75;11.20;;;;;;;;;;4956329;28;107494;-68
2022/01/19 03:56:55;;;;;;;31.17;10.70;;;;;;;;;;4951330;28;106196;-68
2022/01/19 03:59:21;;;;;;;30.70;12.07;;;;;;;;;;4951295;28;108622;-68
2022/01/19 04:01:51;;;;;;;28.45;10.70;;;;;;;;;;4983938;28;109597;-69
2022/01/19 04:09:23;;;;;;;26.00;10.10;;;;;;;;;;4959998;28;107130;-71
2022/01/19 04:11:52;;;;;;;28.75;9.95;;;;;;;;;;4944143;28;106454;-68
2022/01/19 04:14:22;;;;;;;66.78;13.45;;;;;;;;;;4967849;28;107253;-68
2022/01/19 04:16:53;;;;;;;150.27;16.77;;;;;;;;;;4951678;28;105906;-68
2022/01/19 04:19:27;;;;;;;54.17;11.10;;;;;;;;;;4983215;28;108357;-68
2022/01/19 04:22:13;;;;;;;121.55;15.30;;;;;;;;;;4952055;28;109064;-69
2022/01/19 04:24:42;;;;;;;49.03;11.77;;;;;;;;;;4955634;28;107022;-68
2022/01/19 04:29:49;;;;;;;293.00;25.00;;;;;;;;;;4950392;28;109909;-68
2022/01/19 04:32:22;;;;;;;245.23;24.70;;;;;;;;;;4965415;28;106584;-68
2022/01/19 04:34:50;;;;;;;358.55;30.50;;;;;;;;;;4938682;28;108308;-68
2022/01/19 05:07:05;;;;;;;62.78;16.83;;;;;;;;;;4956215;28;107576;-68
2022/01/19 05:14:49;;;;;;;49.40;16.77;;;;;;;;;;4955394;28;105592;-68
2022/01/19 05:17:16;;;;;;;74.57;16.73;;;;;;;;;;4947112;28;108656;-67
2022/01/19 05:19:42;;;;;;;52.72;15.77;;;;;;;;;;4952738;28;106804;-68
2022/01/19 05:22:09;;;;;;;41.45;15.90;;;;;;;;;;4952120;28;108135;-68
2022/01/19 05:24:57;;;;;;;43.33;15.45;;;;;;;;;;4954665;28;108811;-67
2022/01/19 05:27:43;;;;;;;43.88;15.48;;;;;;;;;;4952149;28;106768;-70
2022/01/19 05:30:10;;;;;;;42.08;15.10;;;;;;;;;;4964053;28;108244;-68
2022/01/19 05:32:36;;;;;;;39.55;15.07;;;;;;;;;;4936071;28;109352;-68
2022/01/19 05:35:03;;;;;;;39.80;15.10;;;;;;;;;;4948239;28;107506;-69
2022/01/19 05:37:50;;;;;;;40.97;15.18;;;;;;;;;;4956750;28;106233;-67
2022/01/19 05:40:29;;;;;;;42.40;14.77;;;;;;;;;;4981949;28;109533;-68
2022/01/19 05:42:56;;;;;;;42.33;15.32;;;;;;;;;;4950756;28;106603;-68
2022/01/19 05:45:24;;;;;;;41.20;14.75;;;;;;;;;;4951987;28;109471;-68
2022/01/19 05:47:52;;;;;;;49.15;16.55;;;;;;;;;;4933597;28;106565;-68
2022/01/19 05:50:18;;;;;;;45.28;15.60;;;;;;;;;;4975883;28;106007;-68
2022/01/19 05:52:54;;;;;;;42.35;14.80;;;;;;;;;;4953897;28;109043;-70
2022/01/19 05:55:20;;;;;;;43.42;14.75;;;;;;;;;;4953637;28;106983;-68
2022/01/19 05:57:47;;;;;;;52.28;15.95;;;;;;;;;;4954018;28;107595;-69
2022/01/19 06:00:13;;;;;;;45.22;16.65;;;;;;;;;;4951007;28;109043;-69
2022/01/19 06:02:49;;;;;;;41.55;15.50;;;;;;;;;;4966195;28;106136;-68
2022/01/19 06:05:24;;;;;;;46.65;15.60;;;;;;;;;;4967623;28;108244;-69
2022/01/19 06:08:18;;;;;;;48.60;16.80;;;;;;;;;;4966361;28;106881;-69
2022/01/19 06:10:55;;;;;;;39.97;16.15;;;;;;;;;;4953196;28;108238;-68
2022/01/19 06:13:22;;;;;;;45.42;16.55;;;;;;;;;;4954110;28;110383;-68
2022/01/19 06:15:49;;;;;;;52.10;17.27;;;;;;;;;;4980231;28;107023;-68
2022/01/19 06:18:17;;;;;;;50.55;17.98;;;;;;;;;;4958886;28;108369;-68
2022/01/19 06:20:44;;;;;;;57.67;18.00;;;;;;;;;;4964177;28;108903;-69
2022/01/19 06:23:13;;;;;;;48.97;17.45;;;;;;;;;;4976012;28;106750;-71
2022/01/19 06:26:00;;;;;;;42.80;16.33;;;;;;;;;;4982126;28;108108;-68
2022/01/19 06:28:27;;;;;;;54.55;17.05;;;;;;;;;;4976036;28;109305;-68
2022/01/19 06:30:53;;;;;;;51.08;18.08;;;;;;;;;;4966157;28;108579;-68
2022/01/19 06:33:20;;;;;;;53.42;17.98;;;;;;;;;;4954037;28;108575;-68
2022/01/19 06:35:46;;;;;;;50.15;18.17;;;;;;;;;;4957342;28;106080;-69
2022/01/19 06:38:31;;;;;;;53.72;18.05;;;;;;;;;;4967548;28;105592;-68
2022/01/19 06:41:02;;;;;;;65.93;19.92;;;;;;;;;;4981963;28;108716;-71
2022/01/19 06:43:28;;;;;;;59.28;20.40;;;;;;;;;;4960551;28;106593;-69
2022/01/19 06:45:58;;;;;;;63.42;20.58;;;;;;;;;;4947351;28;108115;-67
2022/01/19 06:48:31;;;;;;;58.58;20.42;;;;;;;;;;4943448;28;110022;-66
2022/01/19 06:50:59;;;;;;;53.22;19.15;;;;;;;;;;4970412;28;107010;-65
2022/01/19 06:53:36;;;;;;;63.10;20.63;;;;;;;;;;4951223;28;109146;-66
2022/01/19 06:56:07;;;;;;;71.85;22.55;;;;;;;;;;4939010;28;106210;-69
2022/01/19 06:58:34;;;;;;;60.63;20.42;;;;;;;;;;4945495;28;108796;-67
2022/01/19 07:01:35;;;;;;;72.97;23.20;;;;;;;;;;4953440;28;107806;-66
2022/01/19 07:04:06;;;;;;;85.88;24.35;;;;;;;;;;4970450;28;105847;-66
2022/01/19 07:06:33;;;;;;;80.63;24.92;;;;;;;;;;4947705;28;108990;-66
2022/01/19 07:09:18;;;;;;;92.70;28.67;;;;;;;;;;4952742;28;106118;-67
2022/01/19 07:11:50;;;;;;;92.50;28.13;;;;;;;;;;4952538;28;106461;-68
2022/01/19 07:14:17;;;;;;;98.95;29.10;;;;;;;;;;4953582;28;109257;-66
2022/01/19 07:16:45;;;;;;;113.75;30.58;;;;;;;;;;4945774;28;108284;-66
2022/01/19 07:19:13;;;;;;;103.45;30.20;;;;;;;;;;4964108;28;109674;-66
2022/01/19 07:21:41;;;;;;;102.45;29.48;;;;;;;;;;4946937;28;108995;-66
2022/01/19 07:24:08;;;;;;;104.35;29.75;;;;;;;;;;4954405;28;106821;-68
2022/01/19 07:26:34;;;;;;;104.07;30.05;;;;;;;;;;4954435;28;109184;-66
2022/01/19 07:29:02;;;;;;;113.05;32.17;;;;;;;;;;4959219;28;108845;-66
2022/01/19 07:31:29;;;;;;;110.30;30.15;;;;;;;;;;4964999;28;106461;-66
2022/01/19 07:33:59;;;;;;;123.57;31.95;;;;;;;;;;4952907;28;108000;-67
2022/01/19 07:36:26;;;;;;;134.57;32.20;;;;;;;;;;4952638;28;106303;-67
2022/01/19 07:38:52;;;;;;;123.28;33.53;;;;;;;;;;4968187;28;106159;-68
2022/01/19 07:41:20;;;;;;;127.10;33.85;;;;;;;;;;4951388;28;108941;-67
2022/01/19 07:43:50;;;;;;;124.30;33.30;;;;;;;;;;4966308;28;106480;-67
2022/01/19 07:46:34;;;;;;;138.25;35.60;;;;;;;;;;4966771;28;107622;-68
2022/01/19 07:49:26;;;;;;;123.25;34.28;;;;;;;;;;4959299;28;108830;-66
2022/01/19 07:52:11;;;;;;;140.07;35.90;;;;;;;;;;4971564;28;106333;-68
2022/01/19 07:54:46;;;;;;;137.05;35.53;;;;;;;;;;4952306;28;105973;-68
2022/01/19 07:57:32;;;;;;;129.32;32.67;;;;;;;;;;4951535;28;109412;-68
2022/01/19 08:00:24;;;;;;;128.38;33.90;;;;;;;;;;4969605;28;106949;-69
2022/01/19 08:02:50;;;;;;;120.68;35.42;;;;;;;;;;4961641;28;106062;-70
2022/01/19 08:05:52;;;;;;;142.27;33.42;;;;;;;;;;4944235;28;108038;-70
2022/01/19 08:08:19;;;;;;;138.95;35.67;;;;;;;;;;4951530;28;108676;-70
2022/01/19 08:10:45;;;;;;;136.82;34.83;;;;;;;;;;4942647;28;107799;-68
2022/01/19 08:13:14;;;;;;;135.23;36.67;;;;;;;;;;4983733;28;107258;-67
2022/01/19 08:15:41;;;;;;;137.95;37.20;;;;;;;;;;4955502;28;107176;-69
2022/01/19 08:18:09;;;;;;;133.90;35.42;;;;;;;;;;4964930;28;108934;-67
2022/01/19 08:20:35;;;;;;;144.70;37.17;;;;;;;;;;4970008;28;106464;-67
2022/01/19 08:23:03;;;;;;;137.23;35.40;;;;;;;;;;4981986;28;108309;-68
2022/01/19 08:25:40;;;;;;;141.63;36.78;;;;;;;;;;4950867;28;106075;-67
2022/01/19 08:28:07;;;;;;;133.68;36.88;;;;;;;;;;4965248;28;107239;-68
2022/01/19 08:30:34;;;;;;;138.90;36.83;;;;;;;;;;4976047;28;109504;-69
2022/01/19 08:33:01;;;;;;;144.13;37.58;;;;;;;;;;4950319;28;106067;-66
2022/01/19 08:35:36;;;;;;;140.88;36.50;;;;;;;;;;4945733;28;108043;-67
2022/01/19 08:38:23;;;;;;;145.18;37.10;;;;;;;;;;4966536;28;107104;-66
2022/01/19 08:40:58;;;;;;;153.98;37.20;;;;;;;;;;4952699;28;106798;-67
2022/01/19 08:43:26;;;;;;;156.93;37.92;;;;;;;;;;4952383;28;108307;-67
2022/01/19 08:45:55;;;;;;;153.73;37.25;;;;;;;;;;4983305;28;108697;-68
2022/01/19 08:48:25;;;;;;;134.60;36.63;;;;;;;;;;4963407;28;108002;-67
2022/01/19 08:51:06;;;;;;;145.02;35.35;;;;;;;;;;4949911;28;109089;-66
2022/01/19 08:53:44;;;;;;;144.88;36.33;;;;;;;;;;4950416;28;105940;-67
2022/01/19 08:56:26;;;;;;;124.82;34.20;;;;;;;;;;4978468;28;108418;-67
2022/01/19 08:58:52;;;;;;;141.10;37.50;;;;;;;;;;4955919;28;106577;-67
2022/01/19 09:01:19;;;;;;;147.55;37.00;;;;;;;;;;4951587;28;105922;-67
2022/01/19 09:03:45;;;;;;;143.45;37.58;;;;;;;;;;4956267;28;107753;-68
2022/01/19 09:06:12;;;;;;;141.95;37.28;;;;;;;;;;4970218;28;106928;-67
2022/01/19 09:08:39;;;;;;;135.98;36.03;;;;;;;;;;4969079;28;107496;-67
2022/01/19 09:11:06;;;;;;;137.10;35.30;;;;;;;;;;4962319;28;106731;-67
2022/01/19 09:13:33;;;;;;;143.95;38.15;;;;;;;;;;4966950;28;106119;-66
2022/01/19 09:16:00;;;;;;;118.57;33.08;;;;;;;;;;4963616;28;106239;-67
2022/01/19 09:18:26;;;;;;;124.22;34.35;;;;;;;;;;4964921;28;106866;-67
2022/01/19 09:20:53;;;;;;;129.82;36.55;;;;;;;;;;4967729;28;106242;-68
2022/01/19 09:23:19;;;;;;;129.32;35.90;;;;;;;;;;4968212;28;106781;-67
2022/01/19 09:25:45;;;;;;;122.20;34.42;;;;;;;;;;4977207;28;106961;-68
2022/01/19 09:28:12;;;;;;;128.88;34.97;;;;;;;;;;4981237;28;107122;-71
2022/01/19 09:30:41;;;;;;;121.97;33.65;;;;;;;;;;4961567;28;108152;-64
2022/01/19 09:33:18;;;;;;;119.53;36.60;;;;;;;;;;4964490;28;105925;-67
2022/01/19 09:38:27;;;;;;;114.13;33.40;;;;;;;;;;4966195;28;107271;-65
2022/01/19 09:40:54;;;;;;;122.78;36.63;;;;;;;;;;4978101;28;105936;-66
2022/01/19 09:43:22;;;;;;;130.65;37.22;;;;;;;;;;4968290;28;106085;-66
2022/01/19 09:45:52;;;;;;;129.50;36.03;;;;;;;;;;4965550;28;107508;-65
2022/01/19 09:48:18;;;;;;;;;;;;;;;;;;4959254;28;105567;-66
2022/01/19 09:50:45;;;;;;;126.07;34.95;;;;;;;;;;4959004;28;136206;-67
2022/01/19 09:53:11;;;;;;;113.88;34.58;;;;;;;;;;4960333;28;106154;-65
2022/01/19 09:55:38;;;;;;;114.18;34.78;;;;;;;;;;4966715;28;107799;-65
2022/01/19 09:58:05;;;;;;;131.32;34.67;;;;;;;;;;4961712;28;107615;-64
2022/01/19 10:00:32;;;;;;;107.10;36.70;;;;;;;;;;4942445;28;107195;-65
2022/01/19 10:03:14;;;;;;;110.10;34.67;;;;;;;;;;4968943;28;108459;-65
2022/01/19 10:05:52;;;;;;;113.18;34.97;;;;;;;;;;4960801;28;107446;-66
2022/01/19 10:08:27;;;;;;;114.63;34.25;;;;;;;;;;4964296;28;106116;-66
2022/01/19 10:11:05;;;;;;;105.70;34.47;;;;;;;;;;4961639;28;107070;-67
2022/01/19 10:19:14;;;;;;;105.13;33.60;;;;;;;;;;4961306;28;111020;-67
2022/01/19 10:21:59;;;;;;;89.15;32.38;;;;;;;;;;4982269;28;107172;-66
2022/01/19 10:24:50;;;;;;;96.88;34.25;;;;;;;;;;4959280;28;106335;-65
2022/01/19 10:27:23;;;;;;;99.22;32.10;;;;;;;;;;4960203;28;106686;-67
2022/01/19 10:30:10;;;;;;;97.78;32.75;;;;;;;;;;4965717;28;106130;-67
2022/01/19 10:32:41;;;;;;;105.85;34.55;;;;;;;;;;4964297;28;106057;-66
2022/01/19 10:35:16;;;;;;;96.07;33.38;;;;;;;;;;4947113;28;107957;-66
2022/01/19 10:37:43;;;;;;;100.93;33.25;;;;;;;;;;4987884;28;108606;-65
2022/01/19 10:40:20;;;;;;;95.07;32.75;;;;;;;;;;4964938;28;106352;-65
2022/01/19 10:42:47;;;;;;;96.88;32.08;;;;;;;;;;4957019;28;106396;-65
2022/01/19 10:45:15;;;;;;;92.43;33.95;;;;;;;;;;4966530;28;106930;-65
2022/01/19 10:47:43;;;;;;;91.75;32.78;;;;;;;;;;4967783;28;107819;-66
2022/01/19 10:50:11;;;;;;;92.00;32.40;;;;;;;;;;4967315;28;105924;-67
2022/01/19 10:52:39;;;;;;;87.15;31.55;;;;;;;;;;4958651;28;107979;-67
2022/01/19 10:55:10;;;;;;;80.68;31.48;;;;;;;;;;4952680;28;106544;-65
2022/01/19 10:57:38;;;;;;;85.78;30.27;;;;;;;;;;4969175;28;106260;-67
2022/01/19 11:00:15;;;;;;;76.40;30.23;;;;;;;;;;4971399;28;107322;-65
2022/01/19 11:02:43;;;;;;;82.80;32.42;;;;;;;;;;4972333;28;106177;-67
2022/01/19 11:05:10;;;;;;;89.07;31.38;;;;;;;;;;4965474;28;106259;-67
2022/01/19 11:07:37;;;;;;;81.20;31.00;;;;;;;;;;4967536;28;106506;-67
2022/01/19 11:10:13;;;;;;;87.05;31.30;;;;;;;;;;4971863;28;107685;-66
2022/01/19 11:12:53;;;;;;;75.35;29.60;;;;;;;;;;4981595;28;106848;-66
2022/01/19 11:15:19;;;;;;;87.20;31.67;;;;;;;;;;4967453;28;106443;-65
2022/01/19 11:17:47;;;;;;;83.28;30.85;;;;;;;;;;4967499;28;106382;-65
2022/01/19 11:20:15;;;;;;;82.85;29.35;;;;;;;;;;4966538;28;106645;-69
2022/01/19 11:22:45;;;;;;;85.30;30.98;;;;;;;;;;4973166;28;105934;-64
2022/01/19 11:25:15;;;;;;;84.05;31.48;;;;;;;;;;4974850;28;106311;-67
2022/01/19 11:28:01;;;;;;;80.93;31.30;;;;;;;;;;4962733;28;107530;-66
2022/01/19 11:30:29;;;;;;;78.45;29.95;;;;;;;;;;4966800;28;106468;-66
2022/01/19 11:33:13;;;;;;;88.65;32.33;;;;;;;;;;4967659;28;106356;-66
2022/01/19 11:35:41;;;;;;;81.55;32.55;;;;;;;;;;4962801;28;107632;-65
2022/01/19 11:38:26;;;;;;;85.80;31.83;;;;;;;;;;4958561;28;106844;-67
2022/01/19 11:40:53;;;;;;;84.25;31.30;;;;;;;;;;4967763;28;106910;-66
2022/01/19 11:43:25;;;;;;;82.00;30.90;;;;;;;;;;4963622;28;107626;-66
2022/01/19 11:45:52;;;;;;;84.55;32.33;;;;;;;;;;4963938;28;107160;-64
2022/01/19 11:48:20;;;;;;;83.45;33.05;;;;;;;;;;4968381;28;109742;-66
2022/01/19 11:50:47;;;;;;;81.10;31.45;;;;;;;;;;4967949;28;106272;-64
2022/01/19 11:53:14;;;;;;;77.90;30.98;;;;;;;;;;4971152;28;106487;-64
2022/01/19 11:55:41;;;;;;;84.57;33.13;;;;;;;;;;4968339;28;106933;-66
2022/01/19 11:58:11;;;;;;;80.28;31.95;;;;;;;;;;4963275;28;106266;-68
2022/01/19 12:00:38;;;;;;;70.90;30.60;;;;;;;;;;4971489;28;108762;-66
2022/01/19 12:03:19;;;;;;;68.93;29.15;;;;;;;;;;4968681;28;107382;-66
2022/01/19 12:06:05;;;;;;;76.72;30.30;;;;;;;;;;4967099;28;107068;-65
2022/01/19 12:08:33;;;;;;;76.80;30.77;;;;;;;;;;4978419;28;106588;-64
2022/01/19 12:11:10;;;;;;;77.73;29.87;;;;;;;;;;4968524;28;106076;-64
2022/01/19 12:19:06;;;;;;;65.93;29.60;;;;;;;;;;4966077;28;106022;-66
2022/01/19 12:21:32;;;;;;;63.42;27.98;;;;;;;;;;4970083;28;107112;-66
2022/01/19 12:24:29;;;;;;;72.50;31.08;;;;;;;;;;4964543;28;107631;-64
2022/01/19 12:27:34;;;;;;;73.63;29.00;;;;;;;;;;4969420;28;106003;-65
2022/01/19 12:30:04;;;;;;;75.45;30.63;;;;;;;;;;4899234;28;108471;-64
2022/01/19 12:32:32;;;;;;;68.03;28.23;;;;;;;;;;4896418;28;105824;-65
2022/01/19 12:35:05;;;;;;;71.93;29.38;;;;;;;;;;4919503;28;109288;-65
2022/01/19 12:37:32;;;;;;;70.25;27.02;;;;;;;;;;4966539;28;107112;-65
2022/01/19 12:39:59;;;;;;;66.43;28.02;;;;;;;;;;4969042;28;106518;-65
2022/01/19 12:42:39;;;;;;;71.75;28.58;;;;;;;;;;4968123;28;107994;-66
2022/01/19 12:45:19;;;;;;;67.95;28.88;;;;;;;;;;4977763;28;106205;-65
2022/01/19 12:47:47;;;;;;;73.35;29.35;;;;;;;;;;4966651;28;107403;-65
2022/01/19 12:50:16;;;;;;;66.38;29.80;;;;;;;;;;4971452;28;107851;-66
2022/01/19 12:52:49;;;;;;;60.95;28.08;;;;;;;;;;4972059;28;107544;-66
2022/01/19 12:55:20;;;;;;;72.85;29.35;;;;;;;;;;4969648;28;106524;-66
2022/01/19 12:57:47;;;;;;;76.18;30.00;;;;;;;;;;4967716;28;107164;-64
2022/01/19 13:00:14;;;;;;;73.13;29.95;;;;;;;;;;4952024;28;106654;-65
2022/01/19 13:02:41;;;;;;;60.17;26.52;;;;;;;;;;4968939;28;107141;-65
2022/01/19 13:05:10;;;;;;;67.97;28.90;;;;;;;;;;4983195;28;109744;-66
2022/01/19 13:07:40;;;;;;;68.70;29.63;;;;;;;;;;4966638;28;106369;-65
2022/01/19 13:12:42;;;;;;;78.18;29.70;;;;;;;;;;4965538;28;106740;-65
2022/01/19 13:15:09;;;;;;;70.97;29.67;;;;;;;;;;4960221;28;106679;-65
2022/01/19 13:17:46;;;;;;;68.95;29.38;;;;;;;;;;4964118;28;106521;-65
2022/01/19 13:20:15;;;;;;;76.75;29.60;;;;;;;;;;4974540;28;107353;-65
2022/01/19 13:22:42;;;;;;;71.10;28.92;;;;;;;;;;4965918;28;106237;-65
2022/01/19 13:25:19;;;;;;;70.75;29.10;;;;;;;;;;4969938;28;106217;-65
2022/01/19 13:27:45;;;;;;;74.38;29.88;;;;;;;;;;4969460;28;105901;-64
2022/01/19 13:30:16;;;;;;;68.68;29.95;;;;;;;;;;4967035;28;106670;-65
2022/01/19 13:32:43;;;;;;;66.70;28.65;;;;;;;;;;4964926;28;107272;-64
2022/01/19 13:35:10;;;;;;;74.03;28.83;;;;;;;;;;4956064;28;106293;-65
2022/01/19 13:37:48;;;;;;;68.43;28.15;;;;;;;;;;4967247;28;106782;-64
2022/01/19 13:40:22;;;;;;;66.68;29.05;;;;;;;;;;4965798;28;105638;-65
2022/01/19 13:42:59;;;;;;;73.13;29.63;;;;;;;;;;4973122;28;106360;-65
2022/01/19 13:48:50;;;;;;;73.63;28.85;;;;;;;;;;4968516;28;106170;-64
2022/01/19 13:51:12;;;;;;;76.32;29.30;;;;;;;;;;4959053;28;106281;-65
2022/01/19 13:53:40;;;;;;;66.03;27.58;;;;;;;;;;4962140;28;106853;-64
2022/01/19 13:56:09;;;;;;;65.82;28.67;;;;;;;;;;4969972;28;108270;-64
2022/01/19 13:58:39;;;;;;;70.10;28.73;;;;;;;;;;4966966;28;107093;-66
2022/01/19 14:01:08;;;;;;;68.82;27.80;;;;;;;;;;4965877;28;107176;-66
2022/01/19 14:03:35;;;;;;;;;;;;;;;;;;4966122;28;107127;-64
2022/01/19 14:06:01;;;;;;;74.07;29.40;;;;;;;;;;4963925;28;136662;-65
2022/01/19 14:08:28;;;;;;;74.78;30.08;;;;;;;;;;4976513;28;107967;-65
2022/01/19 14:10:55;;;;;;;74.20;27.38;;;;;;;;;;4971258;28;106501;-64
2022/01/19 14:13:21;;;;;;;62.20;26.98;;;;;;;;;;4959045;28;106526;-66
2022/01/19 14:15:48;;;;;;;65.65;28.55;;;;;;;;;;4966718;28;106251;-66
2022/01/19 14:18:14;;;;;;;66.70;28.17;;;;;;;;;;4974724;28;107125;-68
2022/01/19 14:20:40;;;;;;;68.45;26.85;;;;;;;;;;4968459;28;106095;-64
2022/01/19 14:23:12;;;;;;;70.20;27.35;;;;;;;;;;4966008;28;107497;-69
2022/01/19 14:25:39;;;;;;;72.07;26.73;;;;;;;;;;4967133;28;107487;-65
2022/01/19 14:28:13;;;;;;;67.15;25.75;;;;;;;;;;4954274;28;106315;-65
2022/01/19 14:30:41;;;;;;;72.07;27.90;;;;;;;;;;4975654;28;106815;-64
2022/01/19 14:33:28;;;;;;;68.60;26.38;;;;;;;;;;4964075;28;107844;-65
2022/01/19 14:35:56;;;;;;;63.25;26.65;;;;;;;;;;4967269;28;107545;-64
2022/01/19 14:38:23;;;;;;;72.07;26.05;;;;;;;;;;4955425;28;109136;-66
2022/01/19 14:40:58;;;;;;;70.65;25.63;;;;;;;;;;4974410;28;107713;-63
2022/01/19 14:43:27;;;;;;;62.20;26.00;;;;;;;;;;4965730;28;107039;-65
2022/01/19 14:46:01;;;;;;;66.13;26.40;;;;;;;;;;4965965;28;106723;-64
2022/01/19 14:48:33;;;;;;;73.90;27.17;;;;;;;;;;4946642;28;106919;-65
2022/01/19 14:51:00;;;;;;;72.57;26.80;;;;;;;;;;4964778;28;107333;-65
2022/01/19 14:53:30;;;;;;;77.70;28.33;;;;;;;;;;4964145;28;107576;-64
2022/01/19 14:55:56;;;;;;;75.03;27.40;;;;;;;;;;4955401;28;105923;-65
2022/01/19 14:58:35;;;;;;;69.23;25.43;;;;;;;;;;4969787;28;107838;-64
2022/01/19 15:01:02;;;;;;;74.97;26.23;;;;;;;;;;4967090;28;107129;-65
2022/01/19 15:03:28;;;;;;;70.85;25.73;;;;;;;;;;4970499;28;106078;-65
2022/01/19 15:05:55;;;;;;;75.78;27.27;;;;;;;;;;4967027;28;106301;-65
2022/01/19 15:08:21;;;;;;;82.53;27.05;;;;;;;;;;4957154;28;106200;-66
2022/01/19 15:10:48;;;;;;;89.97;29.35;;;;;;;;;;4975317;28;108010;-64
2022/01/19 15:13:14;;;;;;;79.72;28.20;;;;;;;;;;4982587;28;106978;-65
2022/01/19 15:15:41;;;;;;;81.32;26.92;;;;;;;;;;4967791;28;106124;-64
2022/01/19 15:18:07;;;;;;;95.18;30.30;;;;;;;;;;4959557;28;106665;-67
2022/01/19 15:20:39;;;;;;;89.05;28.75;;;;;;;;;;4964513;28;106922;-64
2022/01/19 15:23:06;;;;;;;102.30;29.73;;;;;;;;;;4966910;28;106202;-64
2022/01/19 15:25:34;;;;;;;83.72;29.50;;;;;;;;;;4974944;28;106085;-66
2022/01/19 15:28:02;;;;;;;70.45;26.95;;;;;;;;;;4957663;28;105819;-66
2022/01/19 15:30:29;;;;;;;87.05;29.40;;;;;;;;;;4949645;28;109445;-66
2022/01/19 15:32:56;;;;;;;81.43;28.45;;;;;;;;;;4955674;28;106303;-65
2022/01/19 15:35:23;;;;;;;77.80;28.55;;;;;;;;;;4970012;28;106340;-68
2022/01/19 15:37:50;;;;;;;95.15;31.83;;;;;;;;;;4967246;28;106751;-65
2022/01/19 15:40:17;;;;;;;92.45;29.30;;;;;;;;;;4956178;28;107609;-66
2022/01/19 15:43:00;;;;;;;94.93;29.15;;;;;;;;;;4955331;28;106068;-66
2022/01/19 15:45:29;;;;;;;92.65;29.77;;;;;;;;;;4968325;28;106759;-66
2022/01/19 15:47:57;;;;;;;71.13;27.02;;;;;;;;;;4971519;28;107509;-67
2022/01/19 15:50:24;;;;;;;99.60;28.38;;;;;;;;;;4950931;28;108540;-66
2022/01/19 15:52:51;;;;;;;77.75;28.55;;;;;;;;;;4970329;28;106610;-67
2022/01/19 15:55:17;;;;;;;68.60;25.55;;;;;;;;;;4967538;28;106732;-67
2022/01/19 15:58:04;;;;;;;78.20;26.67;;;;;;;;;;4968859;28;107163;-66
2022/01/19 16:00:30;;;;;;;77.68;26.95;;;;;;;;;;4970831;28;107117;-66
2022/01/19 16:02:57;;;;;;;73.50;24.95;;;;;;;;;;4967529;28;106342;-67
2022/01/19 16:05:24;;;;;;;80.05;25.13;;;;;;;;;;4966396;28;107012;-70